sensor_id;sensor_type;location;lat;lon;timestamp;pressure;altitude;pressure_sealevel;temperature;humidity
77118;BME280;66072;50.238;19.228;2023-02-24T00:01:39;97896.66;;;6.34;79.45
77118;BME280;66072;50.238;19.228;2023-02-24T00:04:10;97897.91;;;6.36;79.50
77118;BME280;66072;50.238;19.228;2023-02-24T00:06:40;97894.80;;;6.37;79.41
77118;BME280;66072;50.238;19.228;2023-02-24T00:09:18;97892.08;;;6.38;79.35
77118;BME280;66072;50.238;19.228;2023-02-24T00:12:09;97893.77;;;6.38;79.33
77118;BME280;66072;50.238;19.228;2023-02-24T00:14:37;97887.02;;;6.37;79.38
77118;BME280;66072;50.238;19.228;2023-02-24T00:17:06;97879.73;;;6.36;79.41
77118;BME280;66072;50.238;19.228;2023-02-24T00:19:35;97878.08;;;6.36;79.53
77118;BME280;66072;50.238;19.228;2023-02-24T00:22:05;97874.23;;;6.34;79.61
77118;BME280;66072;50.238;19.228;2023-02-24T00:24:33;97872.43;;;6.32;79.56
77118;BME280;66072;50.238;19.228;2023-02-24T00:27:02;97866.91;;;6.30;79.61
77118;BME280;66072;50.238;19.228;2023-02-24T00:29:30;97865.80;;;6.28;79.61
77118;BME280;66072;50.238;19.228;2023-02-24T00:31:58;97865.51;;;6.27;79.81
77118;BME280;66072;50.238;19.228;2023-02-24T00:34:27;97859.77;;;6.26;79.75
77118;BME280;66072;50.238;19.228;2023-02-24T00:36:56;97858.27;;;6.25;79.76
77118;BME280;66072;50.238;19.228;2023-02-24T00:39:25;97856.40;;;6.25;79.83
77118;BME280;66072;50.238;19.228;2023-02-24T00:41:53;97855.44;;;6.24;79.92
77118;BME280;66072;50.238;19.228;2023-02-24T00:44:20;97851.88;;;6.24;79.93
77118;BME280;66072;50.238;19.228;2023-02-24T00:46:48;97851.22;;;6.23;79.95
77118;BME280;66072;50.238;19.228;2023-02-24T00:49:18;97850.39;;;6.23;80.05
77118;BME280;66072;50.238;19.228;2023-02-24T00:51:46;97850.20;;;6.23;80.01
77118;BME280;66072;50.238;19.228;2023-02-24T00:54:15;97844.98;;;6.22;79.95
77118;BME280;66072;50.238;19.228;2023-02-24T00:56:44;97840.92;;;6.22;79.86
77118;BME280;66072;50.238;19.228;2023-02-24T00:59:15;97840.05;;;6.22;80.01
77118;BME280;66072;50.238;19.228;2023-02-24T01:01:44;97834.45;;;6.22;79.99
77118;BME280;66072;50.238;19.228;2023-02-24T01:04:12;97837.20;;;6.21;79.90
77118;BME280;66072;50.238;19.228;2023-02-24T01:06:43;97831.65;;;6.20;79.97
77118;BME280;66072;50.238;19.228;2023-02-24T01:09:13;97829.98;;;6.19;79.96
77118;BME280;66072;50.238;19.228;2023-02-24T01:11:43;97822.94;;;6.17;79.98
77118;BME280;66072;50.238;19.228;2023-02-24T01:14:16;97822.98;;;6.16;80.06
77118;BME280;66072;50.238;19.228;2023-02-24T01:16:44;97821.41;;;6.17;80.13
77118;BME280;66072;50.238;19.228;2023-02-24T01:19:12;97818.46;;;6.18;80.35
77118;BME280;66072;50.238;19.228;2023-02-24T01:21:40;97818.04;;;6.21;80.26
77118;BME280;66072;50.238;19.228;2023-02-24T01:24:07;97814.77;;;6.22;80.17
77118;BME280;66072;50.238;19.228;2023-02-24T01:26:35;97813.37;;;6.23;80.21
77118;BME280;66072;50.238;19.228;2023-02-24T01:29:03;97811.10;;;6.24;80.24
77118;BME280;66072;50.238;19.228;2023-02-24T01:31:31;97808.83;;;6.26;80.10
77118;BME280;66072;50.238;19.228;2023-02-24T01:33:58;97806.77;;;6.27;80.18
77118;BME280;66072;50.238;19.228;2023-02-24T01:36:26;97804.36;;;6.28;80.16
77118;BME280;66072;50.238;19.228;2023-02-24T01:38:53;97798.75;;;6.27;80.18
77118;BME280;66072;50.238;19.228;2023-02-24T01:41:22;97793.98;;;6.28;80.18
77118;BME280;66072;50.238;19.228;2023-02-24T01:43:54;97791.56;;;6.29;80.12
77118;BME280;66072;50.238;19.228;2023-02-24T01:46:22;97792.52;;;6.30;79.99
77118;BME280;66072;50.238;19.228;2023-02-24T01:48:50;97788.91;;;6.31;80.03
77118;BME280;66072;50.238;19.228;2023-02-24T01:51:22;97786.34;;;6.32;80.10
77118;BME280;66072;50.238;19.228;2023-02-24T01:53:50;97784.48;;;6.32;80.06
77118;BME280;66072;50.238;19.228;2023-02-24T01:56:17;97783.45;;;6.32;79.97
77118;BME280;66072;50.238;19.228;2023-02-24T01:58:45;97778.86;;;6.32;79.97
77118;BME280;66072;50.238;19.228;2023-02-24T02:01:14;97775.31;;;6.31;80.03
77118;BME280;66072;50.238;19.228;2023-02-24T02:03:43;97770.73;;;6.31;80.06
77118;BME280;66072;50.238;19.228;2023-02-24T02:06:12;97769.35;;;6.32;80.10
77118;BME280;66072;50.238;19.228;2023-02-24T02:08:41;97765.95;;;6.32;80.09
77118;BME280;66072;50.238;19.228;2023-02-24T02:11:12;97764.60;;;6.32;80.06
77118;BME280;66072;50.238;19.228;2023-02-24T02:13:43;97761.69;;;6.33;80.01
77118;BME280;66072;50.238;19.228;2023-02-24T02:28:18;97751.46;;;6.37;80.01
77118;BME280;66072;50.238;19.228;2023-02-24T02:36:55;97743.07;;;6.39;79.87
77118;BME280;66072;50.238;19.228;2023-02-24T02:44:47;97731.63;;;6.40;79.83
77118;BME280;66072;50.238;19.228;2023-02-24T02:50:07;97726.27;;;6.39;79.86
77118;BME280;66072;50.238;19.228;2023-02-24T02:52:42;97721.83;;;6.40;79.83
77118;BME280;66072;50.238;19.228;2023-02-24T02:55:17;97719.60;;;6.40;79.76
77118;BME280;66072;50.238;19.228;2023-02-24T02:57:51;97719.08;;;6.40;79.87
77118;BME280;66072;50.238;19.228;2023-02-24T03:00:26;97715.84;;;6.41;79.73
77118;BME280;66072;50.238;19.228;2023-02-24T03:02:58;97712.36;;;6.42;79.70
77118;BME280;66072;50.238;19.228;2023-02-24T03:05:31;97712.14;;;6.43;79.81
77118;BME280;66072;50.238;19.228;2023-02-24T03:08:01;97707.86;;;6.44;79.67
77118;BME280;66072;50.238;19.228;2023-02-24T03:10:31;97709.11;;;6.47;79.60
77118;BME280;66072;50.238;19.228;2023-02-24T03:13:01;97706.48;;;6.49;79.54
77118;BME280;66072;50.238;19.228;2023-02-24T03:15:31;97707.26;;;6.51;79.62
77118;BME280;66072;50.238;19.228;2023-02-24T03:18:06;97703.19;;;6.51;79.64
77118;BME280;66072;50.238;19.228;2023-02-24T03:20:41;97702.63;;;6.52;79.70
77118;BME280;66072;50.238;19.228;2023-02-24T03:23:15;97704.48;;;6.52;79.86
77118;BME280;66072;50.238;19.228;2023-02-24T03:25:58;97699.92;;;6.52;79.87
77118;BME280;66072;50.238;19.228;2023-02-24T03:28:36;97696.42;;;6.54;80.10
77118;BME280;66072;50.238;19.228;2023-02-24T03:31:22;97699.34;;;6.53;80.16
77118;BME280;66072;50.238;19.228;2023-02-24T03:36:35;97694.87;;;6.51;80.98
77118;BME280;66072;50.238;19.228;2023-02-24T03:39:03;97698.17;;;6.48;81.24
77118;BME280;66072;50.238;19.228;2023-02-24T03:41:39;97692.05;;;6.44;81.31
77118;BME280;66072;50.238;19.228;2023-02-24T03:44:09;97689.52;;;6.40;81.47
77118;BME280;66072;50.238;19.228;2023-02-24T03:46:38;97681.86;;;6.37;81.95
77118;BME280;66072;50.238;19.228;2023-02-24T03:49:10;97683.66;;;6.34;81.96
77118;BME280;66072;50.238;19.228;2023-02-24T03:51:39;97681.40;;;6.32;81.92
77118;BME280;66072;50.238;19.228;2023-02-24T03:54:38;97677.80;;;6.28;82.37
77118;BME280;66072;50.238;19.228;2023-02-24T03:59:58;97673.09;;;6.23;82.75
77118;BME280;66072;50.238;19.228;2023-02-24T04:02:29;97669.43;;;6.22;83.05
77118;BME280;66072;50.238;19.228;2023-02-24T04:05:11;97669.18;;;6.19;83.51
77118;BME280;66072;50.238;19.228;2023-02-24T04:08:02;97665.81;;;6.14;84.00
77118;BME280;66072;50.238;19.228;2023-02-24T04:13:23;97656.38;;;6.05;84.74
77118;BME280;66072;50.238;19.228;2023-02-24T04:15:58;97656.55;;;6.01;84.82
77118;BME280;66072;50.238;19.228;2023-02-24T04:18:30;97652.67;;;5.96;85.06
77118;BME280;66072;50.238;19.228;2023-02-24T04:21:00;97649.08;;;5.92;85.35
77118;BME280;66072;50.238;19.228;2023-02-24T04:23:31;97644.48;;;5.87;86.00
77118;BME280;66072;50.238;19.228;2023-02-24T04:26:01;97638.02;;;5.84;86.77
77118;BME280;66072;50.238;19.228;2023-02-24T04:28:29;97636.56;;;5.82;86.62
77118;BME280;66072;50.238;19.228;2023-02-24T04:31:00;97634.28;;;5.80;86.99
77118;BME280;66072;50.238;19.228;2023-02-24T04:33:29;97635.55;;;5.78;87.08
77118;BME280;66072;50.238;19.228;2023-02-24T04:35:56;97629.66;;;5.77;87.54
77118;BME280;66072;50.238;19.228;2023-02-24T04:38:24;97626.64;;;5.76;87.74
77118;BME280;66072;50.238;19.228;2023-02-24T04:40:52;97622.13;;;5.74;87.68
77118;BME280;66072;50.238;19.228;2023-02-24T04:43:19;97616.59;;;5.73;88.07
77118;BME280;66072;50.238;19.228;2023-02-24T04:45:48;97613.63;;;5.71;88.52
77118;BME280;66072;50.238;19.228;2023-02-24T04:48:16;97611.17;;;5.68;88.26
77118;BME280;66072;50.238;19.228;2023-02-24T04:50:44;97610.59;;;5.66;88.80
77118;BME280;66072;50.238;19.228;2023-02-24T04:53:13;97602.52;;;5.64;88.82
77118;BME280;66072;50.238;19.228;2023-02-24T04:55:44;97599.73;;;5.62;89.39
77118;BME280;66072;50.238;19.228;2023-02-24T04:58:15;97592.52;;;5.60;89.89
77118;BME280;66072;50.238;19.228;2023-02-24T05:00:44;97594.10;;;5.58;90.25
77118;BME280;66072;50.238;19.228;2023-02-24T05:03:13;97586.73;;;5.56;90.10
77118;BME280;66072;50.238;19.228;2023-02-24T05:05:51;97585.14;;;5.53;90.56
77118;BME280;66072;50.238;19.228;2023-02-24T05:08:19;97582.17;;;5.51;90.91
77118;BME280;66072;50.238;19.228;2023-02-24T05:10:47;97576.88;;;5.48;90.84
77118;BME280;66072;50.238;19.228;2023-02-24T05:13:20;97570.66;;;5.46;91.09
77118;BME280;66072;50.238;19.228;2023-02-24T05:15:48;97564.93;;;5.45;90.81
77118;BME280;66072;50.238;19.228;2023-02-24T05:18:17;97561.08;;;5.45;90.90
77118;BME280;66072;50.238;19.228;2023-02-24T05:20:47;97557.23;;;5.44;91.13
77118;BME280;66072;50.238;19.228;2023-02-24T05:23:15;97554.55;;;5.43;91.02
77118;BME280;66072;50.238;19.228;2023-02-24T05:25:42;97554.06;;;5.42;91.15
77118;BME280;66072;50.238;19.228;2023-02-24T05:28:10;97552.22;;;5.42;91.29
77118;BME280;66072;50.238;19.228;2023-02-24T05:30:38;97551.20;;;5.42;91.50
77118;BME280;66072;50.238;19.228;2023-02-24T05:33:05;97549.49;;;5.42;91.30
77118;BME280;66072;50.238;19.228;2023-02-24T05:35:35;97546.44;;;5.42;91.43
77118;BME280;66072;50.238;19.228;2023-02-24T05:38:03;97546.59;;;5.42;91.49
77118;BME280;66072;50.238;19.228;2023-02-24T05:40:30;97546.92;;;5.43;91.77
77118;BME280;66072;50.238;19.228;2023-02-24T05:42:58;97548.23;;;5.43;91.86
77118;BME280;66072;50.238;19.228;2023-02-24T05:45:25;97545.85;;;5.44;91.98
77118;BME280;66072;50.238;19.228;2023-02-24T05:47:53;97547.98;;;5.45;91.98
77118;BME280;66072;50.238;19.228;2023-02-24T05:50:20;97546.43;;;5.46;91.81
77118;BME280;66072;50.238;19.228;2023-02-24T05:52:48;97547.94;;;5.46;91.61
77118;BME280;66072;50.238;19.228;2023-02-24T05:55:16;97545.41;;;5.46;91.73
77118;BME280;66072;50.238;19.228;2023-02-24T05:57:43;97549.81;;;5.46;91.60
77118;BME280;66072;50.238;19.228;2023-02-24T06:00:11;97551.84;;;5.46;91.65
77118;BME280;66072;50.238;19.228;2023-02-24T06:02:39;97549.13;;;5.46;91.48
77118;BME280;66072;50.238;19.228;2023-02-24T06:05:07;97546.92;;;5.47;91.72
77118;BME280;66072;50.238;19.228;2023-02-24T06:07:35;97548.43;;;5.47;91.35
77118;BME280;66072;50.238;19.228;2023-02-24T06:10:03;97542.48;;;5.47;91.47
77118;BME280;66072;50.238;19.228;2023-02-24T06:12:32;97541.96;;;5.48;91.30
77118;BME280;66072;50.238;19.228;2023-02-24T06:15:01;97538.05;;;5.48;91.38
77118;BME280;66072;50.238;19.228;2023-02-24T06:17:28;97536.14;;;5.49;91.40
77118;BME280;66072;50.238;19.228;2023-02-24T06:19:56;97534.73;;;5.50;91.31
77118;BME280;66072;50.238;19.228;2023-02-24T06:22:25;97533.65;;;5.52;91.53
77118;BME280;66072;50.238;19.228;2023-02-24T06:24:53;97528.70;;;5.53;91.40
77118;BME280;66072;50.238;19.228;2023-02-24T06:27:21;97525.82;;;5.53;91.37
77118;BME280;66072;50.238;19.228;2023-02-24T06:29:50;97524.70;;;5.55;91.59
77118;BME280;66072;50.238;19.228;2023-02-24T06:32:21;97530.73;;;5.56;91.32
77118;BME280;66072;50.238;19.228;2023-02-24T06:34:50;97530.70;;;5.57;91.44
77118;BME280;66072;50.238;19.228;2023-02-24T06:37:18;97531.89;;;5.57;91.56
77118;BME280;66072;50.238;19.228;2023-02-24T06:39:45;97533.20;;;5.58;91.51
77118;BME280;66072;50.238;19.228;2023-02-24T06:42:13;97530.98;;;5.58;91.68
77118;BME280;66072;50.238;19.228;2023-02-24T06:44:41;97528.77;;;5.59;91.49
77118;BME280;66072;50.238;19.228;2023-02-24T06:47:11;97531.27;;;5.60;91.25
77118;BME280;66072;50.238;19.228;2023-02-24T06:49:39;97528.72;;;5.60;91.41
77118;BME280;66072;50.238;19.228;2023-02-24T06:52:07;97532.59;;;5.61;91.33
77118;BME280;66072;50.238;19.228;2023-02-24T06:54:35;97531.90;;;5.61;91.46
77118;BME280;66072;50.238;19.228;2023-02-24T06:57:03;97533.52;;;5.63;91.43
77118;BME280;66072;50.238;19.228;2023-02-24T06:59:31;97529.35;;;5.66;91.34
77118;BME280;66072;50.238;19.228;2023-02-24T07:02:00;97529.23;;;5.68;91.42
77118;BME280;66072;50.238;19.228;2023-02-24T07:04:28;97524.40;;;5.70;91.54
77118;BME280;66072;50.238;19.228;2023-02-24T07:06:57;97521.44;;;5.72;91.20
77118;BME280;66072;50.238;19.228;2023-02-24T07:09:25;97519.99;;;5.74;91.39
77118;BME280;66072;50.238;19.228;2023-02-24T07:11:54;97515.10;;;5.77;91.44
77118;BME280;66072;50.238;19.228;2023-02-24T07:14:24;97515.45;;;5.81;91.46
77118;BME280;66072;50.238;19.228;2023-02-24T07:16:52;97513.83;;;5.84;91.41
77118;BME280;66072;50.238;19.228;2023-02-24T07:19:25;97513.92;;;5.85;91.54
77118;BME280;66072;50.238;19.228;2023-02-24T07:21:58;97512.85;;;5.86;91.53
77118;BME280;66072;50.238;19.228;2023-02-24T07:24:29;97511.20;;;5.89;91.62
77118;BME280;66072;50.238;19.228;2023-02-24T07:27:04;97509.30;;;5.90;91.99
77118;BME280;66072;50.238;19.228;2023-02-24T07:29:34;97509.08;;;5.92;91.78
77118;BME280;66072;50.238;19.228;2023-02-24T07:32:04;97508.00;;;5.93;91.88
77118;BME280;66072;50.238;19.228;2023-02-24T07:34:33;97507.42;;;5.95;91.85
77118;BME280;66072;50.238;19.228;2023-02-24T07:37:01;97501.48;;;5.95;92.13
77118;BME280;66072;50.238;19.228;2023-02-24T07:39:29;97504.02;;;5.95;91.82
77118;BME280;66072;50.238;19.228;2023-02-24T07:41:57;97504.34;;;5.96;91.97
77118;BME280;66072;50.238;19.228;2023-02-24T07:44:25;97505.30;;;5.97;91.87
77118;BME280;66072;50.238;19.228;2023-02-24T07:46:52;97501.03;;;5.98;92.06
77118;BME280;66072;50.238;19.228;2023-02-24T07:49:21;97498.14;;;5.98;92.03
77118;BME280;66072;50.238;19.228;2023-02-24T07:51:50;97498.10;;;5.99;92.08
77118;BME280;66072;50.238;19.228;2023-02-24T07:54:20;97492.77;;;6.00;92.12
77118;BME280;66072;50.238;19.228;2023-02-24T07:56:48;97489.30;;;6.02;91.97
77118;BME280;66072;50.238;19.228;2023-02-24T07:59:16;97487.84;;;6.04;91.95
77118;BME280;66072;50.238;19.228;2023-02-24T08:01:44;97485.40;;;6.05;91.93
77118;BME280;66072;50.238;19.228;2023-02-24T08:04:12;97482.56;;;6.08;91.71
77118;BME280;66072;50.238;19.228;2023-02-24T08:06:41;97479.55;;;6.11;91.68
77118;BME280;66072;50.238;19.228;2023-02-24T08:09:12;97470.98;;;6.13;91.50
77118;BME280;66072;50.238;19.228;2023-02-24T08:11:40;97469.27;;;6.13;91.56
77118;BME280;66072;50.238;19.228;2023-02-24T08:14:07;97469.46;;;6.12;91.68
77118;BME280;66072;50.238;19.228;2023-02-24T08:16:36;97467.41;;;6.13;91.59
77118;BME280;66072;50.238;19.228;2023-02-24T08:19:11;97465.67;;;6.14;91.45
77118;BME280;66072;50.238;19.228;2023-02-24T08:21:41;97464.61;;;6.15;91.58
77118;BME280;66072;50.238;19.228;2023-02-24T08:24:14;97459.57;;;6.17;91.47
77118;BME280;66072;50.238;19.228;2023-02-24T08:26:53;97460.86;;;6.19;91.52
77118;BME280;66072;50.238;19.228;2023-02-24T08:29:22;97459.86;;;6.23;91.43
77118;BME280;66072;50.238;19.228;2023-02-24T08:31:50;97460.41;;;6.25;91.37
77118;BME280;66072;50.238;19.228;2023-02-24T08:34:17;97460.98;;;6.28;91.29
77118;BME280;66072;50.238;19.228;2023-02-24T08:36:45;97462.08;;;6.30;91.20
77118;BME280;66072;50.238;19.228;2023-02-24T08:39:13;97454.02;;;6.31;91.17
77118;BME280;66072;50.238;19.228;2023-02-24T08:41:41;97452.83;;;6.35;91.05
77118;BME280;66072;50.238;19.228;2023-02-24T08:44:11;97450.30;;;6.38;90.86
77118;BME280;66072;50.238;19.228;2023-02-24T08:46:39;97447.86;;;6.43;90.72
77118;BME280;66072;50.238;19.228;2023-02-24T08:49:07;97444.85;;;6.50;90.64
77118;BME280;66072;50.238;19.228;2023-02-24T08:51:38;97443.24;;;6.55;90.55
77118;BME280;66072;50.238;19.228;2023-02-24T08:54:07;97438.73;;;6.57;90.57
77118;BME280;66072;50.238;19.228;2023-02-24T08:56:37;97439.67;;;6.59;90.18
77118;BME280;66072;50.238;19.228;2023-02-24T08:59:05;97438.90;;;6.61;90.17
77118;BME280;66072;50.238;19.228;2023-02-24T09:01:35;97438.42;;;6.60;90.18
77118;BME280;66072;50.238;19.228;2023-02-24T09:04:08;97434.87;;;6.60;90.11
77118;BME280;66072;50.238;19.228;2023-02-24T09:06:46;97432.95;;;6.61;90.39
77118;BME280;66072;50.238;19.228;2023-02-24T09:09:18;97431.27;;;6.60;90.23
77118;BME280;66072;50.238;19.228;2023-02-24T09:11:55;97427.89;;;6.64;90.48
77118;BME280;66072;50.238;19.228;2023-02-24T09:14:30;97428.16;;;6.72;90.51
77118;BME280;66072;50.238;19.228;2023-02-24T09:16:58;97425.45;;;6.79;90.53
77118;BME280;66072;50.238;19.228;2023-02-24T09:19:29;97425.04;;;6.81;90.48
77118;BME280;66072;50.238;19.228;2023-02-24T09:21:57;97424.09;;;6.86;90.43
77118;BME280;66072;50.238;19.228;2023-02-24T09:24:25;97423.17;;;6.88;90.31
77118;BME280;66072;50.238;19.228;2023-02-24T09:26:55;97425.05;;;6.87;90.69
77118;BME280;66072;50.238;19.228;2023-02-24T09:29:24;97419.33;;;6.86;90.62
77118;BME280;66072;50.238;19.228;2023-02-24T09:31:52;97416.89;;;6.84;90.76
77118;BME280;66072;50.238;19.228;2023-02-24T09:34:20;97413.59;;;6.82;90.79
77118;BME280;66072;50.238;19.228;2023-02-24T09:36:47;97415.20;;;6.80;90.85
77118;BME280;66072;50.238;19.228;2023-02-24T09:39:15;97412.08;;;6.81;90.90
77118;BME280;66072;50.238;19.228;2023-02-24T09:41:50;97413.20;;;6.83;90.90
77118;BME280;66072;50.238;19.228;2023-02-24T09:44:44;97407.01;;;6.84;91.06
77118;BME280;66072;50.238;19.228;2023-02-24T09:49:49;97401.79;;;6.90;91.10
77118;BME280;66072;50.238;19.228;2023-02-24T09:52:18;97396.63;;;6.95;91.07
77118;BME280;66072;50.238;19.228;2023-02-24T09:54:50;97393.44;;;7.01;91.00
77118;BME280;66072;50.238;19.228;2023-02-24T09:57:22;97392.69;;;7.10;91.14
77118;BME280;66072;50.238;19.228;2023-02-24T09:59:59;97391.14;;;7.20;90.84
77118;BME280;66072;50.238;19.228;2023-02-24T10:02:44;97387.42;;;7.30;90.58
77118;BME280;66072;50.238;19.228;2023-02-24T10:07:41;97385.94;;;7.39;90.32
77118;BME280;66072;50.238;19.228;2023-02-24T10:10:17;97378.46;;;7.48;89.90
77118;BME280;66072;50.238;19.228;2023-02-24T10:12:50;97374.52;;;7.63;89.85
77118;BME280;66072;50.238;19.228;2023-02-24T10:15:22;97370.52;;;7.77;89.48
77118;BME280;66072;50.238;19.228;2023-02-24T10:17:56;97367.44;;;7.90;89.26
77118;BME280;66072;50.238;19.228;2023-02-24T10:20:31;97370.13;;;8.00;88.57
77118;BME280;66072;50.238;19.228;2023-02-24T10:23:08;97368.80;;;8.00;87.90
77118;BME280;66072;50.238;19.228;2023-02-24T10:25:52;97360.04;;;8.04;88.09
77118;BME280;66072;50.238;19.228;2023-02-24T10:28:43;97353.37;;;8.14;87.49
77118;BME280;66072;50.238;19.228;2023-02-24T10:31:22;97344.09;;;8.34;86.57
77118;BME280;66072;50.238;19.228;2023-02-24T10:34:03;97336.91;;;8.38;86.43
77118;BME280;66072;50.238;19.228;2023-02-24T10:36:31;97332.98;;;8.35;85.68
77118;BME280;66072;50.238;19.228;2023-02-24T10:39:19;97328.89;;;8.35;86.07
77118;BME280;66072;50.238;19.228;2023-02-24T10:44:21;97310.21;;;8.58;84.86
77118;BME280;66072;50.238;19.228;2023-02-24T10:47:01;97311.29;;;8.81;84.16
77118;BME280;66072;50.238;19.228;2023-02-24T10:49:29;97309.57;;;9.07;83.53
77118;BME280;66072;50.238;19.228;2023-02-24T10:51:56;97309.60;;;9.18;82.67
77118;BME280;66072;50.238;19.228;2023-02-24T10:54:27;97305.85;;;9.12;82.95
77118;BME280;66072;50.238;19.228;2023-02-24T10:56:55;97298.02;;;9.01;82.97
77118;BME280;66072;50.238;19.228;2023-02-24T10:59:23;97292.80;;;8.99;83.30
77118;BME280;66072;50.238;19.228;2023-02-24T11:02:11;97287.10;;;8.98;83.02
77118;BME280;66072;50.238;19.228;2023-02-24T11:04:42;97283.66;;;8.96;82.53
77118;BME280;66072;50.238;19.228;2023-02-24T11:07:14;97265.66;;;9.00;83.08
77118;BME280;66072;50.238;19.228;2023-02-24T11:09:42;97251.58;;;9.16;82.08
77118;BME280;66072;50.238;19.228;2023-02-24T11:14:59;97232.80;;;9.84;80.81
77118;BME280;66072;50.238;19.228;2023-02-24T11:17:28;97234.63;;;10.95;78.42
77118;BME280;66072;50.238;19.228;2023-02-24T11:20:01;97233.88;;;11.31;75.62
77118;BME280;66072;50.238;19.228;2023-02-24T11:22:34;97231.67;;;11.84;72.16
77118;BME280;66072;50.238;19.228;2023-02-24T11:25:21;97227.35;;;12.44;70.55
77118;BME280;66072;50.238;19.228;2023-02-24T11:27:52;97225.11;;;13.42;68.84
77118;BME280;66072;50.238;19.228;2023-02-24T11:30:37;97222.61;;;13.11;66.52
77118;BME280;66072;50.238;19.228;2023-02-24T11:36:02;97224.74;;;11.71;70.44
77118;BME280;66072;50.238;19.228;2023-02-24T11:38:41;97223.77;;;10.96;71.64
77118;BME280;66072;50.238;19.228;2023-02-24T11:41:19;97220.64;;;10.49;73.10
77118;BME280;66072;50.238;19.228;2023-02-24T11:47:08;97208.29;;;10.02;75.94
77118;BME280;66072;50.238;19.228;2023-02-24T11:49:53;97202.88;;;9.85;76.05
77118;BME280;66072;50.238;19.228;2023-02-24T11:52:26;97201.81;;;9.75;76.42
77118;BME280;66072;50.238;19.228;2023-02-24T11:54:58;97196.68;;;9.84;76.84
77118;BME280;66072;50.238;19.228;2023-02-24T11:57:44;97196.08;;;9.95;77.05
77118;BME280;66072;50.238;19.228;2023-02-24T12:00:22;97188.70;;;10.28;76.22
77118;BME280;66072;50.238;19.228;2023-02-24T12:03:16;97182.64;;;10.55;74.94
77118;BME280;66072;50.238;19.228;2023-02-24T12:06:07;97172.39;;;10.70;73.90
77118;BME280;66072;50.238;19.228;2023-02-24T12:08:38;97167.39;;;10.88;72.98
77118;BME280;66072;50.238;19.228;2023-02-24T12:11:29;97159.81;;;11.06;72.12
77118;BME280;66072;50.238;19.228;2023-02-24T12:14:12;97161.64;;;11.55;70.65
77118;BME280;66072;50.238;19.228;2023-02-24T12:16:44;97148.86;;;11.76;68.65
77118;BME280;66072;50.238;19.228;2023-02-24T12:19:17;97140.17;;;11.66;68.98
77118;BME280;66072;50.238;19.228;2023-02-24T12:21:54;97137.45;;;11.49;69.89
77118;BME280;66072;50.238;19.228;2023-02-24T12:24:24;97139.65;;;11.23;70.75
77118;BME280;66072;50.238;19.228;2023-02-24T12:27:10;97144.94;;;11.01;71.86
77118;BME280;66072;50.238;19.228;2023-02-24T12:32:59;97144.79;;;10.30;73.25
77118;BME280;66072;50.238;19.228;2023-02-24T12:35:46;97145.31;;;9.99;74.34
77118;BME280;66072;50.238;19.228;2023-02-24T12:47:03;97137.93;;;9.19;78.35
77118;BME280;66072;50.238;19.228;2023-02-24T12:54:54;97119.56;;;8.69;82.02
77118;BME280;66072;50.238;19.228;2023-02-24T13:03:18;97118.80;;;8.35;84.37
77118;BME280;66072;50.238;19.228;2023-02-24T13:05:58;97105.50;;;8.27;84.78
77118;BME280;66072;50.238;19.228;2023-02-24T13:11:24;97111.13;;;8.15;85.41
77118;BME280;66072;50.238;19.228;2023-02-24T13:14:11;97108.63;;;8.11;85.93
77118;BME280;66072;50.238;19.228;2023-02-24T13:16:41;97101.59;;;8.09;86.26
77118;BME280;66072;50.238;19.228;2023-02-24T13:19:27;97095.17;;;8.17;86.44
77118;BME280;66072;50.238;19.228;2023-02-24T13:24:24;97081.81;;;8.18;86.74
77118;BME280;66072;50.238;19.228;2023-02-24T13:27:03;97079.27;;;8.13;86.92
77118;BME280;66072;50.238;19.228;2023-02-24T13:29:45;97080.38;;;8.08;87.09
77118;BME280;66072;50.238;19.228;2023-02-24T13:35:01;97066.70;;;7.97;87.56
77118;BME280;66072;50.238;19.228;2023-02-24T13:37:37;97068.23;;;7.97;87.54
77118;BME280;66072;50.238;19.228;2023-02-24T13:42:56;97062.58;;;7.92;87.86
77118;BME280;66072;50.238;19.228;2023-02-24T13:45:35;97066.39;;;7.88;87.93
77118;BME280;66072;50.238;19.228;2023-02-24T13:56:40;97046.80;;;7.91;88.23
77118;BME280;66072;50.238;19.228;2023-02-24T14:01:50;97035.38;;;7.91;87.94
77118;BME280;66072;50.238;19.228;2023-02-24T14:04:24;97037.21;;;7.89;88.30
77118;BME280;66072;50.238;19.228;2023-02-24T14:07:02;97031.17;;;7.90;88.30
77118;BME280;66072;50.238;19.228;2023-02-24T14:09:33;97025.13;;;7.92;88.27
77118;BME280;66072;50.238;19.228;2023-02-24T14:12:18;97027.09;;;7.94;88.55
77118;BME280;66072;50.238;19.228;2023-02-24T14:14:47;97027.69;;;7.98;88.59
77118;BME280;66072;50.238;19.228;2023-02-24T14:20:06;97021.97;;;7.96;88.76
77118;BME280;66072;50.238;19.228;2023-02-24T14:22:54;97021.83;;;7.93;88.69
77118;BME280;66072;50.238;19.228;2023-02-24T14:25:22;97015.11;;;7.91;88.71
77118;BME280;66072;50.238;19.228;2023-02-24T14:27:52;97010.11;;;7.90;88.68
77118;BME280;66072;50.238;19.228;2023-02-24T14:30:32;97010.53;;;7.88;88.73
77118;BME280;66072;50.238;19.228;2023-02-24T14:33:01;97006.86;;;7.87;88.65
77118;BME280;66072;50.238;19.228;2023-02-24T14:37:57;96997.98;;;7.87;88.50
77118;BME280;66072;50.238;19.228;2023-02-24T14:40:26;96996.88;;;7.86;88.79
77118;BME280;66072;50.238;19.228;2023-02-24T14:42:54;96994.42;;;7.84;88.71
77118;BME280;66072;50.238;19.228;2023-02-24T14:45:25;96992.78;;;7.83;88.49
77118;BME280;66072;50.238;19.228;2023-02-24T14:47:54;96989.66;;;7.84;88.24
77118;BME280;66072;50.238;19.228;2023-02-24T14:50:31;96987.89;;;7.85;88.20
77118;BME280;66072;50.238;19.228;2023-02-24T14:53:05;96981.48;;;7.87;87.95
77118;BME280;66072;50.238;19.228;2023-02-24T14:55:39;96982.66;;;7.90;88.14
77118;BME280;66072;50.238;19.228;2023-02-24T15:00:49;96979.19;;;7.91;88.14
77118;BME280;66072;50.238;19.228;2023-02-24T15:03:34;96968.05;;;7.96;88.08
77118;BME280;66072;50.238;19.228;2023-02-24T15:06:12;96960.56;;;8.15;87.84
77118;BME280;66072;50.238;19.228;2023-02-24T15:08:47;96954.08;;;8.97;86.16